createdAt,value
2023-11-23T00:00:22.883Z,8.50
2023-11-23T00:03:24.569Z,9.70
2023-11-23T00:06:26.182Z,10.55
2023-11-23T00:09:28.040Z,8.80
2023-11-23T00:12:31.423Z,10.63
2023-11-23T00:15:33.082Z,9.80
2023-11-23T00:18:35.185Z,9.82
2023-11-23T00:21:37.198Z,9.23
2023-11-23T00:24:40.116Z,7.15
2023-11-23T00:27:41.925Z,9.93
2023-11-23T00:30:43.616Z,10.20
2023-11-23T00:33:45.370Z,9.63
2023-11-23T00:36:47.013Z,9.07
2023-11-23T00:39:48.787Z,9.50
2023-11-23T00:42:51.240Z,9.30
2023-11-23T00:45:53.137Z,9.90
2023-11-23T00:48:56.009Z,7.75
2023-11-23T00:51:57.587Z,9.90
2023-11-23T00:54:59.380Z,10.25
2023-11-23T00:58:03.455Z,10.17
2023-11-23T01:01:06.795Z,8.63
2023-11-23T01:04:09.227Z,8.82
2023-11-23T01:07:10.989Z,9.38
2023-11-23T01:10:14.600Z,9.63
2023-11-23T01:13:16.619Z,9.50
2023-11-23T01:16:18.428Z,8.93
2023-11-23T01:19:20.058Z,8.52
2023-11-23T01:22:21.796Z,9.07
2023-11-23T01:25:23.415Z,8.25
2023-11-23T01:28:25.020Z,8.47
2023-11-23T01:31:26.634Z,9.00
2023-11-23T01:34:28.359Z,8.23
2023-11-23T01:37:30.010Z,7.97
2023-11-23T01:40:31.913Z,8.52
2023-11-23T01:43:33.509Z,9.00
2023-11-23T01:46:35.124Z,9.03
2023-11-23T01:49:39.184Z,8.43
2023-11-23T01:52:40.891Z,8.70
2023-11-23T01:55:42.505Z,7.78
2023-11-23T01:58:44.257Z,7.13
2023-11-23T02:01:45.892Z,7.87
2023-11-23T02:04:49.837Z,7.60
2023-11-23T02:07:51.514Z,7.40
2023-11-23T02:10:53.301Z,7.45
2023-11-23T02:13:55.387Z,6.57
2023-11-23T02:16:56.967Z,6.60
2023-11-23T02:19:59.942Z,7.30
2023-11-23T02:23:01.618Z,7.68
2023-11-23T02:26:03.289Z,7.18
2023-11-23T02:29:05.774Z,6.10
2023-11-23T02:32:11.613Z,4.37
2023-11-23T02:35:14.200Z,5.82
2023-11-23T02:38:15.908Z,4.72
2023-11-23T02:41:17.482Z,6.15
2023-11-23T02:44:19.130Z,5.77
2023-11-23T02:47:20.768Z,5.63
2023-11-23T02:50:22.455Z,5.43
2023-11-23T02:53:31.852Z,6.60
2023-11-23T02:56:34.354Z,6.40
2023-11-23T02:59:36.003Z,6.23
2023-11-23T03:02:37.672Z,6.87
2023-11-23T03:05:42.246Z,6.97
2023-11-23T03:08:44.628Z,6.85
2023-11-23T03:11:47.430Z,6.90
2023-11-23T03:14:49.042Z,4.70
2023-11-23T03:17:50.936Z,6.00
2023-11-23T03:20:52.691Z,7.13
2023-11-23T03:23:54.428Z,7.40
2023-11-23T03:26:56.056Z,7.10
2023-11-23T03:29:57.726Z,6.70
2023-11-23T03:32:59.584Z,7.30
2023-11-23T03:36:01.285Z,6.82
2023-11-23T03:39:02.996Z,7.10
2023-11-23T03:42:06.459Z,6.85
2023-11-23T03:45:08.373Z,6.93
2023-11-23T03:48:10.166Z,7.20
2023-11-23T03:51:17.816Z,6.95
2023-11-23T03:54:19.464Z,7.10
2023-11-23T03:57:21.170Z,6.53
2023-11-23T04:00:22.933Z,6.23
2023-11-23T04:03:24.574Z,7.03
2023-11-23T04:06:26.280Z,4.63
2023-11-23T04:09:28.092Z,6.15
2023-11-23T04:12:29.851Z,6.20
2023-11-23T04:15:31.599Z,6.30
2023-11-23T04:18:33.425Z,6.80
2023-11-23T04:21:35.057Z,5.90
2023-11-23T04:24:42.161Z,6.20
2023-11-23T04:27:44.652Z,6.45
2023-11-23T04:30:46.332Z,5.80
2023-11-23T04:33:48.034Z,5.57
2023-11-23T04:36:49.991Z,5.18
2023-11-23T04:39:52.423Z,5.45
2023-11-23T04:42:54.129Z,5.03
2023-11-23T04:45:55.730Z,6.13
2023-11-23T04:48:57.415Z,5.57
2023-11-23T04:51:59.144Z,5.88
2023-11-23T04:55:00.848Z,6.15
2023-11-23T04:58:02.913Z,6.10
2023-11-23T05:01:04.775Z,5.47
2023-11-23T05:04:06.730Z,5.60
2023-11-23T05:07:08.505Z,5.60
2023-11-23T05:10:10.619Z,5.90
2023-11-23T05:13:13.678Z,6.07
2023-11-23T05:16:15.565Z,6.13
2023-11-23T05:19:31.222Z,6.40
2023-11-23T05:22:39.563Z,7.93
2023-11-23T05:25:41.436Z,8.45
2023-11-23T05:28:43.100Z,7.05
2023-11-23T05:31:44.713Z,6.23
2023-11-23T05:34:46.416Z,7.20
2023-11-23T05:37:48.113Z,7.28
2023-11-23T05:40:50.262Z,7.13
2023-11-23T05:43:52.134Z,6.78
2023-11-23T05:46:53.881Z,7.23
2023-11-23T05:49:55.555Z,7.77
2023-11-23T05:52:57.172Z,6.78
2023-11-23T05:55:59.333Z,6.53
2023-11-23T05:59:00.948Z,7.22
2023-11-23T06:02:06.666Z,7.43
2023-11-23T06:05:08.446Z,6.47
2023-11-23T06:08:10.081Z,7.18
2023-11-23T06:11:11.718Z,6.68
2023-11-23T06:14:13.477Z,7.25
2023-11-23T06:17:15.897Z,7.00
2023-11-23T06:20:17.725Z,7.10
2023-11-23T06:23:19.509Z,6.82
2023-11-23T06:26:21.942Z,7.45
2023-11-23T06:29:23.857Z,7.63
2023-11-23T06:32:25.562Z,7.33
2023-11-23T06:35:27.211Z,7.83
2023-11-23T06:38:29.733Z,7.07
2023-11-23T06:41:31.547Z,8.10
2023-11-23T06:44:33.187Z,7.15
2023-11-23T06:47:34.844Z,6.63
2023-11-23T06:50:36.566Z,8.00
2023-11-23T06:53:50.360Z,7.65
2023-11-23T06:56:52.287Z,8.38
2023-11-23T06:59:53.952Z,7.88
2023-11-23T07:03:00.082Z,7.03
2023-11-23T07:06:02.880Z,7.97
2023-11-23T07:09:04.964Z,7.90
2023-11-23T07:12:07.575Z,7.85
2023-11-23T07:15:16.060Z,8.05
2023-11-23T07:18:19.442Z,8.13
2023-11-23T07:21:22.517Z,7.77
2023-11-23T07:24:24.247Z,8.25
2023-11-23T07:27:26.044Z,7.28
2023-11-23T07:30:27.800Z,8.10
2023-11-23T07:33:35.809Z,7.60
2023-11-23T07:36:37.733Z,7.70
2023-11-23T07:39:39.508Z,7.50
2023-11-23T07:42:41.914Z,8.50
2023-11-23T07:45:44.320Z,8.43
2023-11-23T07:48:51.877Z,8.57
2023-11-23T07:51:56.339Z,7.40
2023-11-23T07:54:57.991Z,8.98
2023-11-23T07:57:59.882Z,8.25
2023-11-23T08:01:01.944Z,8.63
2023-11-23T08:04:04.776Z,9.27
2023-11-23T08:07:06.606Z,9.37
2023-11-23T08:10:08.543Z,9.18
2023-11-23T08:13:11.926Z,8.82
2023-11-23T08:16:13.639Z,8.77
2023-11-23T08:19:15.599Z,9.27
2023-11-23T08:22:20.789Z,9.37
2023-11-23T08:25:22.501Z,8.45
2023-11-23T08:28:24.122Z,8.73
2023-11-23T08:31:29.672Z,8.40
2023-11-23T08:34:31.673Z,8.53
2023-11-23T08:37:33.595Z,7.53
2023-11-23T08:40:57.187Z,7.68
2023-11-23T08:43:59.981Z,8.43
2023-11-23T08:47:01.990Z,8.15
2023-11-23T08:50:04.079Z,8.30
2023-11-23T08:53:06.276Z,7.30
2023-11-23T08:56:08.128Z,7.45
2023-11-23T08:59:11.634Z,7.10
2023-11-23T09:02:19.992Z,6.97
2023-11-23T09:05:23.550Z,8.45
2023-11-23T09:08:26.321Z,7.30
2023-11-23T09:11:28.295Z,8.20
2023-11-23T09:14:34.876Z,7.65
2023-11-23T09:17:41.934Z,7.93
2023-11-23T09:20:44.546Z,8.38
2023-11-23T09:23:46.399Z,8.57
2023-11-23T09:26:48.588Z,7.95
2023-11-23T09:29:50.365Z,8.93
2023-11-23T09:32:52.151Z,8.07
2023-11-23T09:35:53.874Z,8.10
2023-11-23T09:38:56.321Z,7.90
2023-11-23T09:41:59.809Z,8.30
2023-11-23T09:45:02.859Z,7.25
2023-11-23T09:48:08.811Z,7.40
2023-11-23T09:51:11.995Z,8.50
2023-11-23T09:54:19.555Z,8.17
2023-11-23T09:57:21.476Z,8.68
2023-11-23T10:00:23.869Z,9.30
2023-11-23T10:03:28.366Z,9.13
2023-11-23T10:06:30.257Z,8.73
2023-11-23T10:09:35.508Z,7.47
2023-11-23T10:12:37.800Z,9.82
2023-11-23T10:15:39.698Z,9.68
2023-11-23T10:18:44.841Z,8.50
2023-11-23T10:21:46.604Z,9.47
2023-11-23T10:24:49.631Z,8.43
2023-11-23T10:27:52.937Z,9.40
2023-11-23T10:30:56.036Z,9.80
2023-11-23T10:33:57.858Z,9.10
2023-11-23T10:37:00.736Z,9.73
2023-11-23T10:40:04.972Z,9.30
2023-11-23T10:43:10.497Z,8.52
2023-11-23T10:46:15.051Z,8.85
2023-11-23T10:49:18.917Z,9.45
2023-11-23T10:52:23.041Z,9.48
2023-11-23T10:55:25.471Z,7.80
2023-11-23T10:58:29.018Z,8.45
2023-11-23T11:01:32.048Z,9.43
2023-11-23T11:04:34.654Z,7.63
2023-11-23T11:07:36.657Z,9.10
2023-11-23T11:10:44.446Z,8.53
2023-11-23T11:13:47.052Z,9.80
2023-11-23T11:16:48.830Z,9.23
2023-11-23T11:19:51.162Z,8.93
2023-11-23T11:22:56.835Z,8.63
2023-11-23T11:26:11.004Z,7.90
2023-11-23T11:29:12.802Z,6.97
2023-11-23T11:32:15.807Z,5.70
2023-11-23T11:35:19.492Z,6.18
2023-11-23T11:38:21.195Z,5.90
2023-11-23T11:41:27.753Z,6.70
2023-11-23T11:44:34.919Z,6.05
2023-11-23T11:47:42.707Z,6.72
2023-11-23T11:50:44.580Z,6.25
2023-11-23T11:53:47.519Z,6.22
2023-11-23T11:56:53.059Z,5.87
2023-11-23T11:59:54.766Z,6.30
2023-11-23T12:02:56.588Z,5.90
2023-11-23T12:05:58.526Z,6.47
2023-11-23T12:09:00.414Z,6.23
2023-11-23T12:12:06.480Z,6.00
2023-11-23T12:15:08.924Z,6.07
2023-11-23T12:18:14.405Z,5.80
2023-11-23T12:21:18.406Z,6.13
2023-11-23T12:24:20.828Z,5.90
2023-11-23T12:27:25.851Z,5.63
2023-11-23T12:30:28.161Z,6.50
2023-11-23T12:33:29.952Z,5.82
2023-11-23T12:36:31.654Z,5.78
2023-11-23T12:39:33.830Z,5.37
2023-11-23T12:42:35.721Z,6.07
2023-11-23T12:45:39.404Z,5.80
2023-11-23T12:48:41.232Z,5.93
2023-11-23T12:51:43.423Z,5.32
2023-11-23T12:54:45.182Z,6.43
2023-11-23T12:57:47.066Z,5.57
2023-11-23T13:00:48.845Z,5.80
2023-11-23T13:03:52.195Z,5.53
2023-11-23T13:06:56.051Z,5.40
2023-11-23T13:09:58.942Z,6.05
2023-11-23T13:13:01.520Z,5.73
2023-11-23T13:16:04.538Z,4.95
2023-11-23T13:19:17.029Z,5.18
2023-11-23T13:22:28.465Z,5.00
2023-11-23T13:25:30.194Z,5.27
2023-11-23T13:28:32.197Z,4.63
2023-11-23T13:31:36.740Z,4.13
2023-11-23T13:34:38.534Z,4.85
2023-11-23T13:37:40.304Z,4.35
2023-11-23T13:40:42.531Z,4.60
2023-11-23T13:43:44.571Z,4.70
2023-11-23T13:46:46.472Z,4.22
2023-11-23T13:49:48.326Z,4.32
2023-11-23T13:52:50.589Z,5.25
2023-11-23T13:55:52.452Z,4.67
2023-11-23T13:58:54.834Z,4.53
2023-11-23T14:01:56.568Z,5.35
2023-11-23T14:04:59.159Z,5.18
2023-11-23T14:08:01.061Z,5.40
2023-11-23T14:11:03.002Z,4.83
2023-11-23T14:14:06.788Z,5.17
2023-11-23T14:17:10.078Z,5.50
2023-11-23T14:20:13.643Z,5.28
2023-11-23T14:23:15.286Z,5.78
2023-11-23T14:26:20.844Z,5.70
2023-11-23T14:29:22.512Z,5.80
2023-11-23T14:32:24.242Z,5.65
2023-11-23T14:35:26.240Z,6.13
2023-11-23T14:38:27.996Z,6.25
2023-11-23T14:41:29.839Z,6.18
2023-11-23T14:44:31.561Z,6.30
2023-11-23T14:47:34.501Z,6.50
2023-11-23T14:50:36.319Z,7.50
2023-11-23T14:53:40.016Z,8.55
2023-11-23T14:56:41.801Z,8.60
2023-11-23T14:59:43.477Z,8.47
2023-11-23T15:02:46.796Z,7.90
2023-11-23T15:05:50.021Z,8.23
2023-11-23T15:08:51.662Z,8.10
2023-11-23T15:11:53.835Z,8.90
2023-11-23T15:14:58.362Z,8.57
2023-11-23T15:18:01.017Z,8.80
2023-11-23T15:21:02.776Z,7.32
2023-11-23T15:24:05.140Z,8.80
2023-11-23T15:27:08.721Z,8.83
2023-11-23T15:30:12.640Z,8.87
2023-11-23T15:33:19.942Z,8.82
2023-11-23T15:36:22.128Z,9.18
2023-11-23T15:39:26.631Z,9.77
2023-11-23T15:42:29.503Z,9.95
2023-11-23T15:45:31.712Z,9.00
2023-11-23T15:48:34.099Z,8.55
2023-11-23T15:51:36.699Z,8.13
2023-11-23T15:54:39.652Z,8.55
2023-11-23T15:57:43.349Z,9.03
2023-11-23T16:00:45.319Z,8.57
2023-11-23T16:03:48.653Z,8.55
2023-11-23T16:06:50.608Z,8.75
2023-11-23T16:09:52.326Z,7.95
2023-11-23T16:12:54.060Z,6.90
2023-11-23T16:15:57.369Z,8.97
2023-11-23T16:18:59.192Z,9.77
2023-11-23T16:22:00.859Z,8.52
2023-11-23T16:25:03.645Z,8.95
2023-11-23T16:28:06.017Z,8.90
2023-11-23T16:31:08.208Z,8.87
2023-11-23T16:34:09.904Z,8.43
2023-11-23T16:37:12.591Z,9.30
2023-11-23T16:40:15.355Z,8.82
2023-11-23T16:43:18.008Z,9.20
2023-11-23T16:46:20.468Z,9.27
2023-11-23T16:49:22.200Z,9.15
2023-11-23T16:52:24.017Z,9.52
2023-11-23T16:55:25.797Z,9.60
2023-11-23T16:58:27.498Z,8.27
2023-11-23T17:01:29.233Z,8.67
2023-11-23T17:04:31.261Z,8.50
2023-11-23T17:07:33.029Z,9.85
2023-11-23T17:10:35.976Z,9.32
2023-11-23T17:13:37.951Z,10.20
2023-11-23T17:16:39.709Z,9.87
2023-11-23T17:19:41.614Z,9.50
2023-11-23T17:22:46.495Z,9.10
2023-11-23T17:25:48.304Z,9.57
2023-11-23T17:28:50.197Z,10.23
2023-11-23T17:31:58.177Z,10.37
2023-11-23T17:35:00.409Z,9.95
2023-11-23T17:38:02.130Z,9.93
2023-11-23T17:41:05.257Z,10.38
2023-11-23T17:44:07.062Z,9.20
2023-11-23T17:47:08.755Z,10.63
2023-11-23T17:50:12.840Z,9.38
2023-11-23T17:53:16.801Z,9.75
2023-11-23T17:56:20.257Z,10.15
2023-11-23T17:59:33.950Z,10.50
2023-11-23T18:02:44.531Z,8.77
2023-11-23T18:05:46.459Z,7.88
2023-11-23T18:08:48.307Z,8.43
2023-11-23T18:11:50.465Z,9.23
2023-11-23T18:14:52.338Z,7.87
2023-11-23T18:17:54.087Z,8.10
2023-11-23T18:20:57.558Z,7.50
2023-11-23T18:23:59.945Z,8.70
2023-11-23T18:27:05.075Z,6.80
2023-11-23T18:30:07.544Z,6.97
2023-11-23T18:33:09.350Z,7.53
2023-11-23T18:36:11.254Z,6.47
2023-11-23T18:39:15.008Z,6.47
2023-11-23T18:42:16.956Z,6.70
2023-11-23T18:45:20.307Z,6.70
2023-11-23T18:48:22.335Z,6.80
2023-11-23T18:51:24.268Z,6.30
2023-11-23T18:54:26.706Z,5.72
2023-11-23T18:57:28.360Z,5.70
2023-11-23T19:00:32.062Z,5.93
2023-11-23T19:03:34.061Z,5.53
2023-11-23T19:06:35.981Z,5.97
2023-11-23T19:09:40.374Z,6.40
2023-11-23T19:13:00.170Z,5.40
2023-11-23T19:16:07.685Z,5.80
2023-11-23T19:19:09.906Z,5.67
2023-11-23T19:22:11.874Z,4.15
2023-11-23T19:25:14.093Z,4.22
2023-11-23T19:28:16.691Z,5.10
2023-11-23T19:31:18.675Z,5.10
2023-11-23T19:34:20.649Z,5.23
2023-11-23T19:37:23.134Z,5.45
2023-11-23T19:40:26.827Z,5.38
2023-11-23T19:43:30.383Z,5.88
2023-11-23T19:46:32.589Z,8.27
2023-11-23T19:49:34.516Z,7.33
2023-11-23T19:52:50.229Z,5.13
2023-11-23T19:55:52.399Z,5.20
2023-11-23T19:58:54.144Z,6.15
2023-11-23T20:02:01.436Z,8.47
2023-11-23T20:05:04.483Z,9.43
2023-11-23T20:08:09.794Z,9.70
2023-11-23T20:11:13.497Z,8.90
2023-11-23T20:14:15.138Z,9.23
2023-11-23T20:17:20.672Z,8.57
2023-11-23T20:20:22.349Z,9.87
2023-11-23T20:23:24.089Z,9.60
2023-11-23T20:26:25.747Z,9.00
2023-11-23T20:29:27.324Z,10.27
2023-11-23T20:32:29.063Z,8.93
2023-11-23T20:35:30.755Z,8.07
2023-11-23T20:38:32.532Z,8.63
2023-11-23T20:41:34.252Z,8.00
2023-11-23T20:44:35.932Z,7.45
2023-11-23T20:47:37.622Z,7.53
2023-11-23T20:50:40.352Z,7.20
2023-11-23T20:53:42.173Z,7.50
2023-11-23T20:56:44.735Z,6.32
2023-11-23T20:59:46.650Z,6.72
2023-11-23T21:02:48.776Z,7.13
2023-11-23T21:05:50.823Z,6.27
2023-11-23T21:08:52.883Z,6.32
2023-11-23T21:11:55.299Z,6.07
2023-11-23T21:14:57.061Z,6.97
2023-11-23T21:17:58.820Z,6.97
2023-11-23T21:21:00.878Z,7.13
2023-11-23T21:24:02.825Z,6.40
2023-11-23T21:27:06.673Z,7.05
2023-11-23T21:30:09.665Z,6.55
2023-11-23T21:33:12.233Z,7.07
2023-11-23T21:36:14.728Z,6.57
2023-11-23T21:39:17.362Z,6.72
2023-11-23T21:42:19.769Z,7.28
2023-11-23T21:45:22.074Z,6.57
2023-11-23T21:48:24.828Z,7.30
2023-11-23T21:51:30.097Z,7.40
2023-11-23T21:54:31.800Z,8.00
2023-11-23T21:57:33.447Z,7.70
2023-11-23T22:00:35.147Z,8.27
2023-11-23T22:03:37.144Z,8.30
2023-11-23T22:06:38.874Z,7.10
2023-11-23T22:09:40.541Z,7.20
2023-11-23T22:12:44.811Z,7.43
2023-11-23T22:15:46.834Z,8.52
2023-11-23T22:18:48.780Z,7.00
2023-11-23T22:21:54.015Z,6.17
2023-11-23T22:24:55.914Z,7.97
2023-11-23T22:27:57.982Z,7.18
2023-11-23T22:31:00.835Z,8.63
2023-11-23T22:34:03.148Z,8.60
2023-11-23T22:37:05.297Z,7.40
2023-11-23T22:40:07.589Z,8.88
2023-11-23T22:43:10.113Z,7.90
2023-11-23T22:46:13.323Z,7.15
2023-11-23T22:49:14.959Z,8.23
2023-11-23T22:52:16.922Z,9.27
2023-11-23T22:55:18.656Z,6.97
2023-11-23T22:58:20.280Z,7.72
2023-11-23T23:01:24.973Z,8.88
2023-11-23T23:04:26.746Z,7.27
2023-11-23T23:07:28.411Z,8.50
2023-11-23T23:10:30.389Z,9.52
2023-11-23T23:13:32.363Z,8.15
2023-11-23T23:16:34.357Z,9.38
2023-11-23T23:19:35.993Z,9.57
2023-11-23T23:22:37.700Z,9.20
2023-11-23T23:25:40.129Z,8.65
2023-11-23T23:28:41.726Z,8.95
2023-11-23T23:31:44.073Z,9.35
2023-11-23T23:34:45.961Z,8.53
2023-11-23T23:37:47.636Z,8.50
2023-11-23T23:40:51.391Z,8.93
2023-11-23T23:43:53.345Z,10.20
2023-11-23T23:46:56.997Z,9.32
2023-11-23T23:49:58.867Z,10.27
2023-11-23T23:53:00.537Z,10.07
2023-11-23T23:56:02.179Z,11.20
2023-11-23T23:59:03.774Z,10.27
